Time;durP1;ratioP1;P1;durP2;ratioP2;P2;SDS_P1;SDS_P2;PMS_P1;PMS_P2;Temp;Humidity;BMP_temperature;BMP_pressure;BME280_temperature;BME280_humidity;BME280_pressure;Samples;Min_cycle;Max_cycle;Signal;HPM_P1;HPM_P2
2023/07/15 00:00:41;;;;;;;4.20;3.20;;;;;;;;;;4955294;28;20054;-77
2023/07/15 00:03:10;;;;;;;6.25;4.10;;;;;;;;;;4971022;28;20036;-77
2023/07/15 00:05:37;;;;;;;7.72;3.60;;;;;;;;;;4971360;28;20113;-78
2023/07/15 00:08:06;;;;;;;6.10;3.00;;;;;;;;;;4972476;28;20050;-77
2023/07/15 00:10:34;;;;;;;4.10;3.25;;;;;;;;;;4972022;28;20102;-76
2023/07/15 00:12:59;;;;;;;5.80;2.92;;;;;;;;;;4971133;28;20125;-77
2023/07/15 00:15:25;;;;;;;5.32;2.67;;;;;;;;;;4972116;28;20106;-77
2023/07/15 00:17:52;;;;;;;5.38;2.88;;;;;;;;;;4954928;28;20058;-77
2023/07/15 00:20:19;;;;;;;5.90;2.60;;;;;;;;;;4972251;28;20034;-77
2023/07/15 00:22:45;;;;;;;5.07;2.75;;;;;;;;;;4971562;28;20169;-77
2023/07/15 00:25:17;;;;;;;5.03;2.90;;;;;;;;;;4974196;28;20031;-77
2023/07/15 00:27:43;;;;;;;;;;;;;;;;;;4975003;28;20114;-78
2023/07/15 00:30:11;;;;;;;4.93;3.33;;;;;;;;;;4956153;28;19922;-77
2023/07/15 00:32:38;;;;;;;7.20;2.70;;;;;;;;;;4984278;28;20027;-77
2023/07/15 00:35:17;;;;;;;6.88;3.95;;;;;;;;;;4988088;28;20023;-78
2023/07/15 00:37:42;;;;;;;6.53;3.00;;;;;;;;;;4959526;28;20081;-77
2023/07/15 00:40:09;;;;;;;6.57;3.42;;;;;;;;;;4971965;28;20510;-77
2023/07/15 00:42:52;;;;;;;3.78;2.50;;;;;;;;;;4954047;28;20037;-77
2023/07/15 00:45:18;;;;;;;5.57;2.38;;;;;;;;;;4954379;28;20027;-77
2023/07/15 00:48:16;;;;;;;2.55;2.33;;;;;;;;;;4954492;28;20029;-76
2023/07/15 00:50:42;;;;;;;5.35;2.80;;;;;;;;;;4954527;28;20043;-76
2023/07/15 00:53:09;;;;;;;4.82;3.05;;;;;;;;;;4954684;28;20033;-77
2023/07/15 00:55:36;;;;;;;3.70;2.75;;;;;;;;;;4970093;28;20456;-77
2023/07/15 00:58:03;;;;;;;7.57;2.90;;;;;;;;;;4954350;28;20117;-78
2023/07/15 01:00:30;;;;;;;5.03;2.85;;;;;;;;;;4971646;28;20077;-77
2023/07/15 01:02:57;;;;;;;4.05;3.03;;;;;;;;;;4955486;28;20118;-77
2023/07/15 01:05:23;;;;;;;7.32;2.78;;;;;;;;;;4955405;28;20037;-77
2023/07/15 01:07:49;;;;;;;4.93;2.50;;;;;;;;;;4971878;28;20403;-76
2023/07/15 01:10:15;;;;;;;5.88;2.70;;;;;;;;;;4971835;28;20090;-78
2023/07/15 01:12:40;;;;;;;3.78;2.72;;;;;;;;;;4973556;28;20023;-78
2023/07/15 01:15:06;;;;;;;3.53;2.65;;;;;;;;;;4954660;28;20038;-77
2023/07/15 01:17:32;;;;;;;3.42;2.65;;;;;;;;;;4972959;28;20050;-77
2023/07/15 01:19:58;;;;;;;4.78;2.42;;;;;;;;;;4972010;28;20033;-77
2023/07/15 01:22:24;;;;;;;7.25;3.10;;;;;;;;;;4971539;28;20070;-78
2023/07/15 01:24:49;;;;;;;4.03;3.17;;;;;;;;;;4971562;28;20062;-77
2023/07/15 01:27:15;;;;;;;4.10;2.85;;;;;;;;;;4971343;28;20069;-77
2023/07/15 01:29:40;;;;;;;4.93;3.00;;;;;;;;;;4950330;29;20504;-77
2023/07/15 01:32:06;;;;;;;5.60;2.67;;;;;;;;;;4950571;29;20066;-78
2023/07/15 01:34:31;;;;;;;3.83;2.88;;;;;;;;;;4952006;29;20031;-76
2023/07/15 01:37:00;;;;;;;3.53;2.85;;;;;;;;;;4954472;28;20027;-77
2023/07/15 01:39:26;;;;;;;6.80;3.13;;;;;;;;;;4955742;28;20597;-76
2023/07/15 01:41:51;;;;;;;6.55;2.60;;;;;;;;;;4954615;29;20039;-77
2023/07/15 01:44:17;;;;;;;5.57;2.63;;;;;;;;;;4954547;29;20062;-77
2023/07/15 01:46:43;;;;;;;3.90;2.60;;;;;;;;;;4955064;29;20035;-76
2023/07/15 01:49:09;;;;;;;6.25;3.53;;;;;;;;;;4957149;28;20031;-77
2023/07/15 01:51:35;;;;;;;4.80;2.85;;;;;;;;;;4956301;29;20031;-77
2023/07/15 01:54:01;;;;;;;7.25;3.63;;;;;;;;;;4954727;29;20031;-77
2023/07/15 01:56:27;;;;;;;4.15;2.55;;;;;;;;;;4954729;29;20182;-78
2023/07/15 01:58:52;;;;;;;4.85;3.22;;;;;;;;;;4958000;28;20106;-77
2023/07/15 02:01:18;;;;;;;6.93;2.97;;;;;;;;;;4958347;29;20368;-77
2023/07/15 02:03:45;;;;;;;5.22;3.45;;;;;;;;;;4956840;28;20077;-76
2023/07/15 02:06:10;;;;;;;7.05;3.55;;;;;;;;;;4956595;29;20023;-77
2023/07/15 02:08:36;;;;;;;3.20;2.90;;;;;;;;;;4958645;28;20340;-76
2023/07/15 02:11:03;;;;;;;4.45;3.25;;;;;;;;;;4966478;29;20460;-75
2023/07/15 02:13:29;;;;;;;3.28;2.83;;;;;;;;;;4963338;28;20051;-77
2023/07/15 02:15:54;;;;;;;7.43;2.67;;;;;;;;;;4963532;28;20031;-76
2023/07/15 02:18:24;;;;;;;7.55;3.15;;;;;;;;;;4964158;28;20035;-77
2023/07/15 02:20:49;;;;;;;9.20;2.78;;;;;;;;;;4961878;28;20027;-79
2023/07/15 02:23:16;;;;;;;5.93;3.25;;;;;;;;;;4960567;29;20027;-77
2023/07/15 02:25:42;;;;;;;4.72;2.78;;;;;;;;;;4956642;29;20393;-76
2023/07/15 02:28:08;;;;;;;4.47;2.67;;;;;;;;;;4956622;28;20464;-76
2023/07/15 02:30:34;;;;;;;6.63;2.63;;;;;;;;;;4956496;28;20037;-76
2023/07/15 02:33:01;;;;;;;6.45;2.83;;;;;;;;;;4956688;28;20063;-78
2023/07/15 02:35:27;;;;;;;4.15;2.60;;;;;;;;;;4956419;28;20030;-79
2023/07/15 02:37:55;;;;;;;3.92;3.05;;;;;;;;;;4974048;28;20030;-78
2023/07/15 02:40:20;;;;;;;3.80;3.05;;;;;;;;;;4956226;28;20096;-77
2023/07/15 02:42:46;;;;;;;2.95;2.70;;;;;;;;;;4956290;28;20516;-77
2023/07/15 02:45:12;;;;;;;4.53;2.33;;;;;;;;;;4975919;28;20034;-75
2023/07/15 02:47:40;;;;;;;4.25;2.90;;;;;;;;;;4954920;28;20085;-78
2023/07/15 02:50:07;;;;;;;3.78;3.03;;;;;;;;;;4956567;28;20023;-75
2023/07/15 02:52:34;;;;;;;2.70;2.50;;;;;;;;;;4956312;28;20027;-76
2023/07/15 02:55:01;;;;;;;6.97;3.33;;;;;;;;;;4956460;28;20034;-78
2023/07/15 02:57:27;;;;;;;4.53;2.38;;;;;;;;;;4973395;28;20341;-76
2023/07/15 02:59:54;;;;;;;3.53;3.10;;;;;;;;;;4973956;28;20015;-76
2023/07/15 03:02:20;;;;;;;5.50;2.97;;;;;;;;;;4974046;28;20463;-77
2023/07/15 03:04:46;;;;;;;3.42;3.13;;;;;;;;;;4972129;28;20058;-77
2023/07/15 03:07:15;;;;;;;5.20;2.92;;;;;;;;;;4956469;28;20031;-77
2023/07/15 03:09:40;;;;;;;3.47;3.17;;;;;;;;;;4955813;28;20022;-77
2023/07/15 03:12:08;;;;;;;3.30;3.00;;;;;;;;;;4973689;28;20141;-77
2023/07/15 03:14:34;;;;;;;6.85;3.17;;;;;;;;;;4956123;28;20371;-77
2023/07/15 03:17:00;;;;;;;9.25;3.80;;;;;;;;;;4956183;28;20030;-77
2023/07/15 03:19:25;;;;;;;4.60;3.15;;;;;;;;;;4955793;28;20045;-76
2023/07/15 03:21:51;;;;;;;4.47;3.03;;;;;;;;;;4955916;28;20548;-78
2023/07/15 03:24:16;;;;;;;6.22;3.20;;;;;;;;;;4955869;28;20049;-77
2023/07/15 03:26:42;;;;;;;4.72;3.17;;;;;;;;;;4971795;28;20029;-77
2023/07/15 03:29:08;;;;;;;7.15;3.65;;;;;;;;;;4956422;28;20046;-77
2023/07/15 03:31:35;;;;;;;4.88;3.38;;;;;;;;;;4972752;28;20035;-77
2023/07/15 03:34:01;;;;;;;6.75;3.53;;;;;;;;;;4973511;28;20019;-76
2023/07/15 03:36:26;;;;;;;6.10;3.30;;;;;;;;;;4973075;28;20027;-77
2023/07/15 03:38:52;;;;;;;5.82;3.40;;;;;;;;;;4955216;28;20040;-77
2023/07/15 03:41:18;;;;;;;8.27;3.22;;;;;;;;;;4973145;28;20034;-76
2023/07/15 03:43:43;;;;;;;6.43;4.55;;;;;;;;;;4972969;28;20031;-76
2023/07/15 03:46:09;;;;;;;12.55;3.63;;;;;;;;;;4971649;28;20034;-77
2023/07/15 03:48:34;;;;;;;5.80;3.10;;;;;;;;;;4972832;28;20027;-76
2023/07/15 03:51:00;;;;;;;5.07;3.00;;;;;;;;;;4971599;28;20117;-75
2023/07/15 03:53:25;;;;;;;6.60;2.97;;;;;;;;;;4973004;28;20054;-77
2023/07/15 03:55:52;;;;;;;4.15;2.97;;;;;;;;;;4972616;28;20110;-76
2023/07/15 03:58:17;;;;;;;6.45;3.00;;;;;;;;;;4955985;28;20087;-77
2023/07/15 04:00:43;;;;;;;4.85;3.92;;;;;;;;;;4973306;28;20504;-76
2023/07/15 04:03:08;;;;;;;4.88;3.53;;;;;;;;;;4974661;28;20030;-77
2023/07/15 04:05:34;;;;;;;6.72;3.63;;;;;;;;;;4955669;28;20467;-77
2023/07/15 04:07:59;;;;;;;6.70;3.50;;;;;;;;;;4955501;28;20490;-77
2023/07/15 04:10:26;;;;;;;6.18;3.08;;;;;;;;;;4955593;28;20030;-77
2023/07/15 04:12:51;;;;;;;6.15;3.90;;;;;;;;;;4972835;28;20031;-77
2023/07/15 04:15:17;;;;;;;4.82;3.30;;;;;;;;;;4955262;28;20592;-76
2023/07/15 04:17:42;;;;;;;3.45;2.72;;;;;;;;;;4972225;28;20026;-77
2023/07/15 04:20:14;;;;;;;6.35;3.65;;;;;;;;;;4972300;28;20101;-77
2023/07/15 04:22:40;;;;;;;6.00;3.22;;;;;;;;;;4954924;28;20117;-76
2023/07/15 04:25:06;;;;;;;6.72;3.65;;;;;;;;;;4954944;28;20539;-76
2023/07/15 04:27:31;;;;;;;5.22;3.60;;;;;;;;;;4970804;28;20026;-76
2023/07/15 04:30:00;;;;;;;7.88;4.03;;;;;;;;;;4954611;28;20047;-77
2023/07/15 04:32:25;;;;;;;8.48;3.83;;;;;;;;;;4972447;28;20050;-77
2023/07/15 04:34:50;;;;;;;5.68;3.47;;;;;;;;;;4972234;28;20061;-77
2023/07/15 04:37:17;;;;;;;4.78;3.10;;;;;;;;;;4955411;28;20088;-77
2023/07/15 04:39:44;;;;;;;7.05;3.33;;;;;;;;;;4958060;28;20077;-77
2023/07/15 04:42:10;;;;;;;7.20;2.92;;;;;;;;;;4974458;28;20570;-78
2023/07/15 04:44:36;;;;;;;5.40;3.45;;;;;;;;;;4973433;28;20114;-77
2023/07/15 04:47:01;;;;;;;7.65;3.85;;;;;;;;;;4973551;28;20027;-78
2023/07/15 04:49:27;;;;;;;3.70;2.85;;;;;;;;;;4972232;28;20030;-77
2023/07/15 04:51:52;;;;;;;5.70;2.70;;;;;;;;;;4955124;28;20663;-76
2023/07/15 04:54:18;;;;;;;7.70;3.60;;;;;;;;;;4971543;28;20033;-77
2023/07/15 04:56:44;;;;;;;7.68;4.00;;;;;;;;;;4954161;28;20084;-77
2023/07/15 04:59:11;;;;;;;6.40;3.17;;;;;;;;;;4971714;28;20109;-77
2023/07/15 05:01:36;;;;;;;6.22;3.88;;;;;;;;;;4971305;28;20149;-77
2023/07/15 05:04:03;;;;;;;7.03;3.83;;;;;;;;;;4971771;28;20677;-77
2023/07/15 05:06:28;;;;;;;5.78;3.70;;;;;;;;;;4954279;28;20029;-76
2023/07/15 05:08:54;;;;;;;4.97;3.40;;;;;;;;;;4953661;28;20027;-78
2023/07/15 05:11:20;;;;;;;18.88;4.97;;;;;;;;;;4970563;28;20656;-76
2023/07/15 05:13:48;;;;;;;8.05;3.63;;;;;;;;;;4971247;28;20122;-78
2023/07/15 05:16:14;;;;;;;5.35;4.00;;;;;;;;;;4954022;28;20034;-77
2023/07/15 05:18:40;;;;;;;5.18;3.75;;;;;;;;;;4971211;28;20031;-77
2023/07/15 05:21:06;;;;;;;6.13;4.18;;;;;;;;;;4970053;28;20105;-77
2023/07/15 05:23:32;;;;;;;6.25;3.90;;;;;;;;;;4971248;28;20027;-78
2023/07/15 05:25:59;;;;;;;5.40;3.38;;;;;;;;;;4971396;28;20133;-77
2023/07/15 05:28:30;;;;;;;9.85;3.65;;;;;;;;;;4953921;28;20054;-78
2023/07/15 05:30:57;;;;;;;6.40;3.65;;;;;;;;;;4971489;28;20027;-77
2023/07/15 05:33:22;;;;;;;4.40;3.60;;;;;;;;;;4971581;28;20030;-78
2023/07/15 05:35:48;;;;;;;4.85;3.58;;;;;;;;;;4971288;28;20038;-77
2023/07/15 05:38:13;;;;;;;6.53;3.65;;;;;;;;;;4954328;28;20035;-78
2023/07/15 05:40:42;;;;;;;4.38;3.47;;;;;;;;;;4953642;28;20027;-78
2023/07/15 05:43:08;;;;;;;5.95;3.25;;;;;;;;;;4953914;28;20030;-78
2023/07/15 05:45:34;;;;;;;5.43;3.72;;;;;;;;;;4953717;28;20035;-78
2023/07/15 05:47:59;;;;;;;7.38;4.00;;;;;;;;;;4969920;28;20337;-77
2023/07/15 05:50:25;;;;;;;10.15;3.83;;;;;;;;;;4953528;28;20027;-77
2023/07/15 05:52:52;;;;;;;8.90;3.80;;;;;;;;;;4970768;28;20031;-77
2023/07/15 05:55:19;;;;;;;8.70;3.35;;;;;;;;;;4954506;28;20035;-75
2023/07/15 05:57:44;;;;;;;6.03;3.35;;;;;;;;;;4971209;28;20364;-75
2023/07/15 06:00:11;;;;;;;5.45;3.65;;;;;;;;;;4971892;28;20078;-75
2023/07/15 06:02:40;;;;;;;6.00;3.80;;;;;;;;;;4954586;28;20023;-76
2023/07/15 06:05:10;;;;;;;7.03;3.58;;;;;;;;;;4959799;28;20027;-76
2023/07/15 06:07:39;;;;;;;5.55;3.63;;;;;;;;;;4961134;28;20081;-76
2023/07/15 06:10:13;;;;;;;5.15;3.25;;;;;;;;;;4961850;28;20019;-76
2023/07/15 06:12:41;;;;;;;6.75;3.72;;;;;;;;;;4976438;28;20070;-76
2023/07/15 06:15:13;;;;;;;4.65;3.42;;;;;;;;;;4959827;28;20070;-75
2023/07/15 06:17:39;;;;;;;5.38;3.20;;;;;;;;;;4958984;28;20031;-75
2023/07/15 06:20:06;;;;;;;6.88;3.50;;;;;;;;;;4954126;28;20034;-75
2023/07/15 06:22:32;;;;;;;10.82;3.47;;;;;;;;;;4976152;28;20031;-75
2023/07/15 06:24:58;;;;;;;5.10;3.88;;;;;;;;;;4981784;28;20027;-75
2023/07/15 06:27:24;;;;;;;7.72;2.95;;;;;;;;;;4981132;28;20082;-75
2023/07/15 06:29:52;;;;;;;9.98;3.80;;;;;;;;;;4964053;28;20134;-76
2023/07/15 06:32:19;;;;;;;4.95;4.00;;;;;;;;;;4963651;28;20085;-75
2023/07/15 06:34:47;;;;;;;6.57;3.83;;;;;;;;;;4963881;28;20054;-75
2023/07/15 06:37:17;;;;;;;4.95;3.10;;;;;;;;;;4963418;28;20023;-75
2023/07/15 06:39:47;;;;;;;4.40;3.30;;;;;;;;;;4946818;28;20031;-75
2023/07/15 06:42:17;;;;;;;4.55;2.83;;;;;;;;;;4963784;28;20030;-75
2023/07/15 06:44:43;;;;;;;4.05;3.38;;;;;;;;;;4963642;28;20415;-76
2023/07/15 06:47:10;;;;;;;3.88;2.92;;;;;;;;;;4963142;28;20066;-74
2023/07/15 06:49:35;;;;;;;8.95;3.30;;;;;;;;;;4963527;28;20126;-74
2023/07/15 06:52:04;;;;;;;7.40;3.40;;;;;;;;;;4963284;28;20062;-74
2023/07/15 06:54:31;;;;;;;6.75;3.00;;;;;;;;;;4981672;28;20034;-76
2023/07/15 06:57:04;;;;;;;14.40;4.20;;;;;;;;;;4964108;28;20030;-76
2023/07/15 06:59:34;;;;;;;5.80;3.25;;;;;;;;;;4964277;28;20093;-77
2023/07/15 07:02:00;;;;;;;7.15;5.28;;;;;;;;;;4963970;28;20030;-75
2023/07/15 07:04:27;;;;;;;4.07;3.10;;;;;;;;;;4981009;28;20468;-73
2023/07/15 07:06:53;;;;;;;4.57;3.00;;;;;;;;;;4980983;28;20027;-75
2023/07/15 07:09:19;;;;;;;7.78;3.10;;;;;;;;;;4964080;28;20041;-75
2023/07/15 07:11:50;;;;;;;4.45;2.85;;;;;;;;;;4964328;28;20045;-73
2023/07/15 07:14:16;;;;;;;4.28;2.80;;;;;;;;;;4963368;28;20022;-75
2023/07/15 07:16:44;;;;;;;4.38;2.80;;;;;;;;;;4963554;28;20475;-75
2023/07/15 07:19:17;;;;;;;2.60;2.40;;;;;;;;;;4965193;28;20026;-76
2023/07/15 07:21:44;;;;;;;4.25;3.05;;;;;;;;;;4950569;28;20125;-73
2023/07/15 07:24:23;;;;;;;;;;;;;;;;;;;;;
2023/07/15 07:26:56;;;;;;;5.03;2.47;;;;;;;;;;4980477;28;20571;-76
2023/07/15 07:29:22;;;;;;;4.00;2.70;;;;;;;;;;4959353;28;20066;-76
2023/07/15 07:31:55;;;;;;;4.00;2.80;;;;;;;;;;4961223;28;20357;-74
2023/07/15 07:34:21;;;;;;;6.13;2.80;;;;;;;;;;4958534;28;20034;-74
2023/07/15 07:36:49;;;;;;;4.70;2.40;;;;;;;;;;4959962;28;20031;-75
2023/07/15 07:39:24;;;;;;;4.80;2.35;;;;;;;;;;4960712;28;20038;-73
2023/07/15 07:41:52;;;;;;;4.45;3.05;;;;;;;;;;4959824;28;20047;-76
2023/07/15 07:44:39;;;;;;;5.47;2.20;;;;;;;;;;4944331;29;20483;-76
2023/07/15 07:47:07;;;;;;;3.35;2.10;;;;;;;;;;4960483;28;20381;-76
2023/07/15 07:49:33;;;;;;;6.50;2.65;;;;;;;;;;4962027;28;20086;-75
2023/07/15 07:52:11;;;;;;;6.50;3.33;;;;;;;;;;4959016;29;20035;-77
2023/07/15 07:54:40;;;;;;;3.58;2.70;;;;;;;;;;4957476;29;20372;-76
2023/07/15 07:57:15;;;;;;;6.55;2.58;;;;;;;;;;4956168;29;20031;-76
2023/07/15 07:59:55;;;;;;;5.90;2.65;;;;;;;;;;4958089;29;20067;-75
2023/07/15 08:02:25;;;;;;;3.67;2.70;;;;;;;;;;4958091;29;20034;-75
2023/07/15 08:05:05;;;;;;;3.92;2.10;;;;;;;;;;4958249;29;20139;-75
2023/07/15 08:07:38;;;;;;;8.73;3.03;;;;;;;;;;4958519;29;20054;-75
2023/07/15 08:10:11;;;;;;;4.28;2.85;;;;;;;;;;4954089;29;20031;-75
2023/07/15 08:12:42;;;;;;;6.20;2.47;;;;;;;;;;4958013;28;20089;-75
2023/07/15 08:15:14;;;;;;;3.03;2.47;;;;;;;;;;4958793;29;20038;-76
2023/07/15 08:17:41;;;;;;;5.40;2.25;;;;;;;;;;4959260;29;20476;-76
2023/07/15 08:20:18;;;;;;;3.33;1.90;;;;;;;;;;4958811;29;20130;-73
2023/07/15 08:22:44;;;;;;;6.10;2.58;;;;;;;;;;4958341;29;20395;-76
2023/07/15 08:25:22;;;;;;;2.15;1.73;;;;;;;;;;4958798;29;20027;-76
2023/07/15 08:27:48;;;;;;;16.23;2.38;;;;;;;;;;4959423;29;20055;-75
2023/07/15 08:30:14;;;;;;;5.50;2.22;;;;;;;;;;4953753;29;20086;-76
2023/07/15 08:32:40;;;;;;;8.43;2.20;;;;;;;;;;4954117;28;20046;-76
2023/07/15 08:35:06;;;;;;;9.07;2.28;;;;;;;;;;4974116;28;20027;-76
2023/07/15 08:37:35;;;;;;;5.35;2.53;;;;;;;;;;4960442;28;20027;-75
2023/07/15 08:40:04;;;;;;;2.05;1.83;;;;;;;;;;4959236;29;20019;-75
2023/07/15 08:42:31;;;;;;;4.88;2.15;;;;;;;;;;4958756;29;20031;-75
2023/07/15 08:44:58;;;;;;;2.97;2.13;;;;;;;;;;4958667;28;20044;-75
2023/07/15 08:47:25;;;;;;;3.58;2.08;;;;;;;;;;4959845;29;20405;-76
2023/07/15 08:49:53;;;;;;;3.78;2.10;;;;;;;;;;4960676;28;20030;-74
2023/07/15 08:52:21;;;;;;;2.85;2.13;;;;;;;;;;4960201;29;20026;-76
2023/07/15 08:54:53;;;;;;;3.60;2.05;;;;;;;;;;4945637;29;20031;-75
2023/07/15 08:57:40;;;;;;;2.53;2.00;;;;;;;;;;4967130;28;20031;-74
2023/07/15 09:00:13;;;;;;;7.97;2.10;;;;;;;;;;4967846;28;20031;-75
2023/07/15 09:02:40;;;;;;;2.85;1.98;;;;;;;;;;4964358;29;20055;-74
2023/07/15 09:05:09;;;;;;;3.50;2.00;;;;;;;;;;4959429;28;20031;-75
2023/07/15 09:08:08;;;;;;;3.28;2.00;;;;;;;;;;4961286;28;20150;-76
2023/07/15 09:10:34;;;;;;;2.03;1.70;;;;;;;;;;4960020;28;20031;-76
2023/07/15 09:13:04;;;;;;;2.85;1.70;;;;;;;;;;4959835;29;20049;-75
2023/07/15 09:15:33;;;;;;;2.03;1.60;;;;;;;;;;4958926;29;20039;-75
2023/07/15 09:18:19;;;;;;;3.80;2.10;;;;;;;;;;4958528;29;20054;-75
2023/07/15 09:20:49;;;;;;;3.13;1.83;;;;;;;;;;4958619;29;20034;-75
2023/07/15 09:23:24;;;;;;;5.25;1.85;;;;;;;;;;4966317;28;20114;-76
2023/07/15 09:25:54;;;;;;;5.93;1.85;;;;;;;;;;4959115;28;20031;-76
2023/07/15 09:28:27;;;;;;;6.03;1.98;;;;;;;;;;4958696;28;20547;-74
2023/07/15 09:30:53;;;;;;;4.10;1.90;;;;;;;;;;4978824;28;20113;-74
2023/07/15 09:33:34;;;;;;;3.58;1.95;;;;;;;;;;4978639;28;20057;-77
2023/07/15 09:36:03;;;;;;;2.70;1.50;;;;;;;;;;4960754;28;20058;-76
2023/07/15 09:38:37;;;;;;;11.02;2.10;;;;;;;;;;4960982;28;20592;-76
2023/07/15 09:41:27;;;;;;;3.03;1.63;;;;;;;;;;4978036;28;20038;-76
2023/07/15 09:44:13;;;;;;;2.13;1.92;;;;;;;;;;4978315;28;20157;-77
2023/07/15 09:46:48;;;;;;;3.20;1.70;;;;;;;;;;4976409;28;20387;-75
2023/07/15 09:49:16;;;;;;;2.33;1.85;;;;;;;;;;4977842;28;20583;-76
2023/07/15 09:51:49;;;;;;;2.25;1.80;;;;;;;;;;4978907;28;20397;-76
2023/07/15 09:54:26;;;;;;;3.22;2.28;;;;;;;;;;4945130;28;20042;-76
2023/07/15 09:57:02;;;;;;;2.38;1.60;;;;;;;;;;4962136;28;20391;-75
2023/07/15 09:59:38;;;;;;;2.88;2.13;;;;;;;;;;4982305;28;20030;-75
2023/07/15 10:02:19;;;;;;;3.38;1.95;;;;;;;;;;4963865;28;20142;-75
2023/07/15 10:04:46;;;;;;;1.77;1.67;;;;;;;;;;4980898;28;20046;-76
2023/07/15 10:07:16;;;;;;;2.38;1.73;;;;;;;;;;4964405;28;20050;-77
2023/07/15 10:09:49;;;;;;;2.47;1.63;;;;;;;;;;4979965;28;20074;-75
2023/07/15 10:12:17;;;;;;;2.58;1.85;;;;;;;;;;4964326;28;20038;-75
2023/07/15 10:14:44;;;;;;;4.28;1.70;;;;;;;;;;4963424;28;20394;-76
2023/07/15 10:17:20;;;;;;;2.97;1.67;;;;;;;;;;4980978;28;20475;-75
2023/07/15 10:20:01;;;;;;;3.33;1.88;;;;;;;;;;4979894;28;20026;-79
2023/07/15 10:22:45;;;;;;;4.10;1.70;;;;;;;;;;4981030;28;20103;-75
2023/07/15 10:25:21;;;;;;;2.88;1.50;;;;;;;;;;4980295;28;20113;-74
2023/07/15 10:28:12;;;;;;;3.42;2.00;;;;;;;;;;4963583;28;20112;-75
2023/07/15 10:30:38;;;;;;;;;;;;;;;;;;4960987;28;20111;-76
2023/07/15 10:33:12;;;;;;;2.08;1.58;;;;;;;;;;4976395;28;19918;-76
2023/07/15 10:35:44;;;;;;;2.55;2.00;;;;;;;;;;4960494;28;20027;-75
2023/07/15 10:38:31;;;;;;;2.85;1.73;;;;;;;;;;4961581;28;20035;-75
2023/07/15 10:41:04;;;;;;;3.22;2.25;;;;;;;;;;4961025;29;20461;-77
2023/07/15 10:43:39;;;;;;;3.72;1.50;;;;;;;;;;4977859;28;20708;-75
2023/07/15 10:46:15;;;;;;;2.80;2.15;;;;;;;;;;4961616;28;20112;-75
2023/07/15 10:48:45;;;;;;;3.63;1.92;;;;;;;;;;4962643;28;20031;-75
2023/07/15 10:51:12;;;;;;;4.13;2.15;;;;;;;;;;4962303;28;20031;-74
2023/07/15 10:53:41;;;;;;;2.00;1.90;;;;;;;;;;4963120;28;20023;-75
2023/07/15 10:56:30;;;;;;;1.90;1.77;;;;;;;;;;4961868;29;20031;-78
2023/07/15 10:59:00;;;;;;;11.10;9.55;;;;;;;;;;4949944;29;20150;-75
2023/07/15 11:01:26;;;;;;;2.00;1.73;;;;;;;;;;4963392;28;20070;-75
2023/07/15 11:03:53;;;;;;;2.10;1.73;;;;;;;;;;4963243;28;20153;-75
2023/07/15 11:06:24;;;;;;;2.45;2.03;;;;;;;;;;4962238;28;20050;-75
2023/07/15 11:08:52;;;;;;;2.25;2.00;;;;;;;;;;4961389;28;20031;-74
2023/07/15 11:11:18;;;;;;;7.70;1.95;;;;;;;;;;4962315;28;20031;-74
2023/07/15 11:13:45;;;;;;;2.47;1.75;;;;;;;;;;4961697;29;20034;-76
2023/07/15 11:16:11;;;;;;;2.53;1.95;;;;;;;;;;4961313;29;20035;-75
2023/07/15 11:18:40;;;;;;;4.32;2.42;;;;;;;;;;4961446;28;20031;-75
2023/07/15 11:21:09;;;;;;;2.10;1.83;;;;;;;;;;4977728;28;20024;-76
2023/07/15 11:23:35;;;;;;;4.85;2.22;;;;;;;;;;4963027;28;20035;-75
2023/07/15 11:26:10;;;;;;;3.15;1.83;;;;;;;;;;4960739;28;20058;-75
2023/07/15 11:28:46;;;;;;;3.30;2.22;;;;;;;;;;4963239;28;20504;-75
2023/07/15 11:31:15;;;;;;;4.95;1.92;;;;;;;;;;4981277;28;20031;-74
2023/07/15 11:33:41;;;;;;;2.17;1.80;;;;;;;;;;4979970;28;20061;-76
2023/07/15 11:36:11;;;;;;;5.93;1.90;;;;;;;;;;4964333;28;20563;-76
2023/07/15 11:38:39;;;;;;;3.53;1.97;;;;;;;;;;4964483;28;20023;-76
2023/07/15 11:41:05;;;;;;;4.53;2.00;;;;;;;;;;4962610;28;20331;-75
2023/07/15 11:43:35;;;;;;;2.55;1.80;;;;;;;;;;4979931;28;20034;-74
2023/07/15 11:46:05;;;;;;;3.15;1.90;;;;;;;;;;4978089;28;20027;-74
2023/07/15 11:48:32;;;;;;;2.20;1.70;;;;;;;;;;4962669;28;20038;-76
2023/07/15 11:51:06;;;;;;;3.67;1.70;;;;;;;;;;4962058;28;20023;-75
2023/07/15 11:53:38;;;;;;;2.33;1.75;;;;;;;;;;4961912;28;20031;-75
2023/07/15 11:56:10;;;;;;;3.53;1.88;;;;;;;;;;4977344;28;20086;-75
2023/07/15 11:59:00;;;;;;;2.33;1.83;;;;;;;;;;4979275;28;20026;-74
2023/07/15 12:01:26;;;;;;;5.95;1.92;;;;;;;;;;4979640;28;20027;-75
2023/07/15 12:03:54;;;;;;;1.75;1.55;;;;;;;;;;4964151;28;20054;-75
2023/07/15 12:06:22;;;;;;;2.55;1.80;;;;;;;;;;4980419;28;20031;-75
2023/07/15 12:09:17;;;;;;;2.67;1.48;;;;;;;;;;4979722;28;20026;-76
2023/07/15 12:11:46;;;;;;;1.48;1.38;;;;;;;;;;4979441;28;20035;-76
2023/07/15 12:14:17;;;;;;;2.90;1.38;;;;;;;;;;4979399;28;20032;-75
2023/07/15 12:16:53;;;;;;;2.03;1.60;;;;;;;;;;4961876;28;20031;-74
2023/07/15 12:19:25;;;;;;;1.85;1.70;;;;;;;;;;4962317;28;20093;-77
2023/07/15 12:21:57;;;;;;;1.90;1.40;;;;;;;;;;4979359;28;20027;-75
2023/07/15 12:24:26;;;;;;;1.58;1.38;;;;;;;;;;4962042;28;20128;-74
2023/07/15 12:26:55;;;;;;;1.40;1.30;;;;;;;;;;4961974;28;20027;-76
2023/07/15 12:29:20;;;;;;;2.28;1.70;;;;;;;;;;4961787;28;20114;-75
2023/07/15 12:31:46;;;;;;;1.40;1.30;;;;;;;;;;4962489;28;20452;-76
2023/07/15 12:34:13;;;;;;;5.28;1.60;;;;;;;;;;4961784;28;20109;-76
2023/07/15 12:36:38;;;;;;;2.35;1.60;;;;;;;;;;4961258;28;20418;-75
2023/07/15 12:39:08;;;;;;;4.25;1.73;;;;;;;;;;4961885;28;20022;-76
2023/07/15 12:41:35;;;;;;;2.75;1.50;;;;;;;;;;4961545;28;20038;-76
2023/07/15 12:44:01;;;;;;;2.20;1.33;;;;;;;;;;4980082;28;20117;-76
2023/07/15 12:46:27;;;;;;;2.72;1.67;;;;;;;;;;4979051;28;20440;-74
2023/07/15 12:48:53;;;;;;;2.92;1.40;;;;;;;;;;4978849;28;20034;-75
2023/07/15 12:51:21;;;;;;;3.30;1.60;;;;;;;;;;4977521;28;20065;-76
2023/07/15 12:53:55;;;;;;;3.75;1.40;;;;;;;;;;4945002;28;20030;-76
2023/07/15 12:56:25;;;;;;;2.95;1.80;;;;;;;;;;4979686;28;20142;-76
2023/07/15 12:58:53;;;;;;;1.50;1.40;;;;;;;;;;4979187;28;20110;-77
2023/07/15 13:01:20;;;;;;;2.60;1.40;;;;;;;;;;4962928;28;20031;-76
2023/07/15 13:03:52;;;;;;;1.77;1.40;;;;;;;;;;4962647;28;20066;-74
2023/07/15 13:06:25;;;;;;;3.67;1.13;;;;;;;;;;4979659;28;20421;-74
2023/07/15 13:08:56;;;;;;;4.72;1.58;;;;;;;;;;4963483;28;20034;-76
2023/07/15 13:11:31;;;;;;;1.85;1.55;;;;;;;;;;4981541;28;20109;-77
2023/07/15 13:13:58;;;;;;;2.40;1.25;;;;;;;;;;4984042;28;20030;-76
2023/07/15 13:16:25;;;;;;;1.83;1.73;;;;;;;;;;4983879;28;20051;-75
2023/07/15 13:18:58;;;;;;;2.55;1.83;;;;;;;;;;4980294;28;20035;-76
2023/07/15 13:21:27;;;;;;;10.45;2.28;;;;;;;;;;4961247;28;20026;-74
2023/07/15 13:23:53;;;;;;;1.90;1.60;;;;;;;;;;4961996;28;20026;-75
2023/07/15 13:26:19;;;;;;;2.55;2.05;;;;;;;;;;4959015;28;20289;-76
2023/07/15 13:28:49;;;;;;;3.47;1.83;;;;;;;;;;4953319;28;20141;-76
2023/07/15 13:31:19;;;;;;;2.17;1.98;;;;;;;;;;4954063;28;20072;-77
2023/07/15 13:33:44;;;;;;;19.80;3.35;;;;;;;;;;4954712;28;20038;-76
2023/07/15 13:36:10;;;;;;;2.65;1.63;;;;;;;;;;4955981;28;20035;-76
2023/07/15 13:38:35;;;;;;;5.47;2.10;;;;;;;;;;4954777;29;20032;-76
2023/07/15 13:41:01;;;;;;;3.40;2.08;;;;;;;;;;4954521;29;20027;-77
2023/07/15 13:43:26;;;;;;;2.95;1.80;;;;;;;;;;4954437;29;20019;-76
2023/07/15 13:45:52;;;;;;;2.42;1.90;;;;;;;;;;4954582;29;20118;-76
2023/07/15 13:48:17;;;;;;;3.67;1.95;;;;;;;;;;4955765;28;20380;-77
2023/07/15 13:50:43;;;;;;;4.22;1.80;;;;;;;;;;4955985;28;20412;-75
2023/07/15 13:53:08;;;;;;;4.95;1.85;;;;;;;;;;4957298;28;20118;-75
2023/07/15 13:55:34;;;;;;;1.88;1.42;;;;;;;;;;4955724;29;20031;-77
2023/07/15 13:57:59;;;;;;;2.03;1.40;;;;;;;;;;4957050;28;20102;-76
2023/07/15 14:00:25;;;;;;;1.92;1.23;;;;;;;;;;4955210;29;20029;-76
2023/07/15 14:02:51;;;;;;;1.85;1.52;;;;;;;;;;4955309;29;20031;-76
2023/07/15 14:05:18;;;;;;;1.65;1.17;;;;;;;;;;4955659;28;20110;-76
2023/07/15 14:07:44;;;;;;;1.38;1.25;;;;;;;;;;4955231;28;20110;-76
2023/07/15 14:10:10;;;;;;;1.92;1.40;;;;;;;;;;4955123;28;20089;-76
2023/07/15 14:12:36;;;;;;;2.72;1.17;;;;;;;;;;4955161;29;20039;-76
2023/07/15 14:15:02;;;;;;;1.52;1.30;;;;;;;;;;4953615;29;20037;-77
2023/07/15 14:17:27;;;;;;;1.52;1.20;;;;;;;;;;4953433;29;20048;-75
2023/07/15 14:19:53;;;;;;;2.65;1.27;;;;;;;;;;4955099;28;20027;-76
2023/07/15 14:22:18;;;;;;;1.20;1.10;;;;;;;;;;4953753;29;20078;-77
2023/07/15 14:24:44;;;;;;;1.38;1.10;;;;;;;;;;4955006;28;20027;-76
2023/07/15 14:27:10;;;;;;;1.58;1.00;;;;;;;;;;4953731;28;20062;-77
2023/07/15 14:29:38;;;;;;;3.60;0.98;;;;;;;;;;4965481;28;20388;-76
2023/07/15 14:32:05;;;;;;;2.97;1.47;;;;;;;;;;4956634;28;20643;-76
2023/07/15 14:34:30;;;;;;;3.25;1.48;;;;;;;;;;4973871;28;20499;-77
2023/07/15 14:36:56;;;;;;;3.00;1.17;;;;;;;;;;4973717;28;20034;-77
2023/07/15 14:39:21;;;;;;;2.08;1.23;;;;;;;;;;4956241;28;20472;-75
2023/07/15 14:41:46;;;;;;;3.55;1.23;;;;;;;;;;4956258;28;20030;-76
2023/07/15 14:44:12;;;;;;;3.00;1.20;;;;;;;;;;4972030;28;20034;-76
2023/07/15 14:46:37;;;;;;;4.00;1.42;;;;;;;;;;4956114;28;20054;-76
2023/07/15 14:49:03;;;;;;;1.92;0.95;;;;;;;;;;4956281;28;20101;-76
2023/07/15 14:51:28;;;;;;;1.55;1.35;;;;;;;;;;4973353;28;20408;-76